Time;durP1;ratioP1;P1;durP2;ratioP2;P2;SDS_P1;SDS_P2;PMS_P1;PMS_P2;Temp;Humidity;BMP_temperature;BMP_pressure;BME280_temperature;BME280_humidity;BME280_pressure;Samples;Min_cycle;Max_cycle;Signal;HPM_P1;HPM_P2
2024/02/10 00:02:10;;;;;;;1014.57;918.83;;;10.10;99.90;;;;;;5054569;28;20931;-66
2024/02/10 00:04:38;;;;;;;999.43;903.30;;;10.10;99.90;;;;;;5054774;28;20454;-65
2024/02/10 00:07:05;;;;;;;998.40;902.80;;;10.00;99.90;;;;;;5054438;28;20486;-65
2024/02/10 00:09:32;;;;;;;992.40;896.50;;;10.10;99.90;;;;;;5054122;28;20447;-66
2024/02/10 00:12:00;;;;;;;989.47;894.37;;;10.00;99.90;;;;;;5053828;28;20489;-66
2024/02/10 00:14:26;;;;;;;980.50;885.07;;;10.00;99.90;;;;;;5059065;28;20446;-66
2024/02/10 00:16:53;;;;;;;973.57;878.20;;;10.00;99.90;;;;;;5054032;28;20459;-66
2024/02/10 00:19:21;;;;;;;986.70;891.10;;;10.00;99.90;;;;;;5054577;28;20532;-64
2024/02/10 00:21:48;;;;;;;1036.90;937.80;;;10.00;99.90;;;;;;5054044;28;21164;-65
2024/02/10 00:24:17;;;;;;;1037.77;937.10;;;10.10;99.90;;;;;;5054547;28;20497;-65
2024/02/10 00:26:45;;;;;;;1023.37;923.17;;;10.10;99.90;;;;;;5054209;28;20612;-64
2024/02/10 00:29:12;;;;;;;1006.70;907.30;;;10.10;99.90;;;;;;5054044;28;20946;-65
2024/02/10 00:31:42;;;;;;;982.53;884.23;;;10.10;99.90;;;;;;5053761;28;20483;-66
2024/02/10 00:34:09;;;;;;;958.80;861.17;;;10.10;99.90;;;;;;5058839;28;20982;-65
2024/02/10 00:36:37;;;;;;;947.33;850.67;;;10.10;99.90;;;;;;5054845;28;20452;-65
2024/02/10 00:39:04;;;;;;;934.17;837.07;;;10.10;99.90;;;;;;5060347;28;20447;-65
2024/02/10 00:41:30;;;;;;;935.50;838.30;;;10.00;99.90;;;;;;5053683;28;20450;-66
2024/02/10 00:43:57;;;;;;;944.30;845.93;;;10.00;99.90;;;;;;5053587;28;20970;-66
2024/02/10 00:46:24;;;;;;;942.37;843.07;;;10.00;99.90;;;;;;5056211;28;20462;-65
2024/02/10 00:48:54;;;;;;;948.97;848.37;;;10.00;99.90;;;;;;5053479;28;20741;-65
2024/02/10 00:51:22;;;;;;;950.30;850.40;;;10.00;99.90;;;;;;5055828;28;21009;-65
2024/02/10 00:53:53;;;;;;;938.73;837.43;;;10.00;99.90;;;;;;5059463;28;20508;-65
2024/02/10 00:56:20;;;;;;;961.63;859.67;;;10.00;99.90;;;;;;5053956;28;20934;-65
2024/02/10 00:58:48;;;;;;;959.20;857.60;;;9.90;99.90;;;;;;5053525;28;20469;-66
2024/02/10 01:01:20;;;;;;;964.10;864.30;;;9.90;99.90;;;;;;5053408;28;20466;-66
2024/02/10 01:03:47;;;;;;;973.73;870.67;;;9.90;99.90;;;;;;5053105;28;20467;-65
2024/02/10 01:06:15;;;;;;;979.37;876.20;;;9.90;99.90;;;;;;5053370;28;20822;-65
2024/02/10 01:08:46;;;;;;;989.17;885.50;;;9.90;99.90;;;;;;5053031;28;21020;-65
2024/02/10 01:11:15;;;;;;;977.70;874.17;;;9.90;99.90;;;;;;5052742;28;20479;-66
2024/02/10 01:13:43;;;;;;;990.40;886.00;;;9.90;99.90;;;;;;5052896;28;20983;-66
2024/02/10 01:16:11;;;;;;;995.80;889.97;;;9.90;99.90;;;;;;5055159;28;20443;-66
2024/02/10 01:18:38;;;;;;;992.87;886.50;;;9.90;99.90;;;;;;5058138;28;20477;-66
2024/02/10 01:21:07;;;;;;;1010.80;904.47;;;9.90;99.90;;;;;;5060428;28;20451;-65
2024/02/10 01:23:34;;;;;;;997.07;889.70;;;9.90;99.90;;;;;;5052890;28;20471;-65
2024/02/10 01:26:01;;;;;;;1002.63;896.30;;;9.90;99.90;;;;;;5053197;28;20458;-66
2024/02/10 01:28:29;;;;;;;996.57;890.37;;;9.90;99.90;;;;;;5052934;28;20451;-66
2024/02/10 01:30:56;;;;;;;998.17;891.30;;;9.90;99.90;;;;;;5052616;28;20482;-66
2024/02/10 01:33:24;;;;;;;995.57;888.77;;;9.90;99.90;;;;;;5052412;28;20573;-66
2024/02/10 01:35:51;;;;;;;998.43;891.70;;;9.90;99.90;;;;;;5057504;28;20805;-65
2024/02/10 01:38:17;;;;;;;993.40;887.63;;;9.90;99.90;;;;;;5052975;28;20443;-65
2024/02/10 01:40:44;;;;;;;991.77;885.97;;;9.90;99.90;;;;;;5054913;28;20442;-65
2024/02/10 01:43:11;;;;;;;1000.80;894.30;;;9.90;99.90;;;;;;5052503;28;20558;-65
2024/02/10 01:45:39;;;;;;;1020.40;913.50;;;9.90;99.90;;;;;;5052493;28;20451;-65
2024/02/10 01:48:08;;;;;;;1003.13;897.43;;;9.90;99.90;;;;;;5052324;28;20444;-66
2024/02/10 01:50:35;;;;;;;1023.47;917.10;;;9.90;99.90;;;;;;5051979;28;20528;-65
2024/02/10 01:53:03;;;;;;;1015.73;910.13;;;9.90;99.90;;;;;;5057473;28;20474;-66
2024/02/10 01:55:31;;;;;;;1026.20;920.87;;;9.80;99.90;;;;;;5052242;28;20951;-66
2024/02/10 01:58:02;;;;;;;1001.33;897.33;;;9.90;99.90;;;;;;5052457;28;20493;-66
2024/02/10 02:00:29;;;;;;;996.70;892.17;;;9.80;99.90;;;;;;5054878;28;20459;-66
2024/02/10 02:02:59;;;;;;;990.63;886.00;;;9.80;99.90;;;;;;5052107;28;20471;-66
2024/02/10 02:05:26;;;;;;;986.23;881.93;;;9.80;99.90;;;;;;5052445;28;20450;-65
2024/02/10 02:07:53;;;;;;;976.27;871.57;;;9.80;99.90;;;;;;5057058;28;20455;-65
2024/02/10 02:10:21;;;;;;;988.60;884.03;;;9.80;99.90;;;;;;5052020;28;20455;-66
2024/02/10 02:12:48;;;;;;;997.67;894.37;;;9.80;99.90;;;;;;5051660;28;20881;-65
2024/02/10 02:15:15;;;;;;;999.37;896.30;;;9.80;99.90;;;;;;5055450;28;20446;-66
2024/02/10 02:17:42;;;;;;;971.40;868.27;;;9.70;99.90;;;;;;5053045;28;20491;-66
2024/02/10 02:20:12;;;;;;;977.87;874.73;;;9.70;99.90;;;;;;5051864;28;20581;-65
2024/02/10 02:22:47;;;;;;;976.60;873.00;;;9.70;99.90;;;;;;5052109;28;20498;-66
2024/02/10 02:25:14;;;;;;;984.33;880.50;;;9.70;99.90;;;;;;5063042;28;20450;-66
2024/02/10 02:27:40;;;;;;;973.67;870.40;;;9.70;99.90;;;;;;5052858;28;20458;-66
2024/02/10 02:30:08;;;;;;;982.83;879.17;;;9.70;99.90;;;;;;5054674;28;20818;-66
2024/02/10 02:32:35;;;;;;;968.70;865.80;;;9.60;99.90;;;;;;5051338;28;20483;-66
2024/02/10 02:35:08;;;;;;;954.23;851.37;;;9.60;99.90;;;;;;5059853;28;20509;-66
2024/02/10 02:37:36;;;;;;;943.33;840.93;;;9.50;99.90;;;;;;5059891;28;20447;-66
2024/02/10 02:40:06;;;;;;;960.13;855.93;;;9.50;99.90;;;;;;5051464;28;20474;-66
2024/02/10 02:42:33;;;;;;;950.13;846.23;;;9.40;99.90;;;;;;5051318;28;20474;-66
2024/02/10 02:45:03;;;;;;;965.10;859.90;;;9.40;99.90;;;;;;5054358;28;20452;-66
2024/02/10 02:47:32;;;;;;;980.63;874.30;;;9.40;99.90;;;;;;5051514;28;20455;-66
2024/02/10 02:49:59;;;;;;;988.60;882.53;;;9.40;99.90;;;;;;5051434;28;20833;-66
2024/02/10 02:52:27;;;;;;;980.60;875.30;;;9.40;99.90;;;;;;5050839;28;20486;-64
2024/02/10 02:54:55;;;;;;;982.97;877.57;;;9.40;99.90;;;;;;5051263;28;20451;-66
2024/02/10 02:57:24;;;;;;;997.20;890.37;;;9.60;99.90;;;;;;5051224;28;20451;-66
2024/02/10 02:59:52;;;;;;;989.93;884.50;;;9.40;99.90;;;;;;5051183;28;20454;-67
2024/02/10 03:02:19;;;;;;;993.13;888.33;;;9.40;99.90;;;;;;5050973;28;20463;-66
2024/02/10 03:04:46;;;;;;;999.23;892.57;;;9.30;99.90;;;;;;5051188;28;20447;-67
2024/02/10 03:07:14;;;;;;;988.37;881.97;;;9.20;99.90;;;;;;5051040;28;20809;-66
2024/02/10 03:09:44;;;;;;;996.80;888.60;;;9.00;99.90;;;;;;5051215;28;20455;-67
2024/02/10 03:12:11;;;;;;;1001.47;893.83;;;8.90;99.90;;;;;;5048093;28;20525;-67
2024/02/10 03:14:39;;;;;;;992.30;884.60;;;8.80;99.90;;;;;;5051324;28;20454;-66
2024/02/10 03:17:08;;;;;;;974.57;867.13;;;8.70;99.90;;;;;;5051286;28;20848;-66
2024/02/10 03:19:36;;;;;;;964.83;858.47;;;8.50;99.90;;;;;;5050943;28;20950;-66
2024/02/10 03:22:03;;;;;;;975.10;869.23;;;8.40;99.90;;;;;;5050829;28;20872;-66
2024/02/10 03:24:31;;;;;;;980.77;875.00;;;8.30;99.90;;;;;;5051060;28;20510;-66
2024/02/10 03:26:57;;;;;;;975.17;868.67;;;8.20;99.90;;;;;;5051149;28;20454;-66
2024/02/10 03:29:24;;;;;;;974.33;868.13;;;8.10;99.90;;;;;;5051148;28;20447;-67
2024/02/10 03:31:52;;;;;;;1004.93;898.43;;;8.20;99.90;;;;;;5047834;28;21023;-67
2024/02/10 03:34:19;;;;;;;986.47;879.60;;;8.00;99.90;;;;;;5054197;28;20447;-66
2024/02/10 03:36:47;;;;;;;974.50;867.30;;;8.00;99.90;;;;;;5063316;28;21163;-67
2024/02/10 03:39:14;;;;;;;998.63;890.57;;;8.00;99.90;;;;;;5052638;28;20953;-66
2024/02/10 03:41:41;;;;;;;987.30;878.90;;;7.90;99.90;;;;;;5062888;28;20824;-66
2024/02/10 03:44:08;;;;;;;1001.10;891.67;;;7.70;99.90;;;;;;5054924;28;20847;-67
2024/02/10 03:46:35;;;;;;;998.10;889.60;;;7.70;99.90;;;;;;5057559;28;20457;-66
2024/02/10 03:49:03;;;;;;;1012.90;902.63;;;7.60;99.90;;;;;;5057245;28;20447;-66
2024/02/10 03:51:30;;;;;;;1018.83;909.53;;;7.60;99.90;;;;;;5054457;28;20478;-66
2024/02/10 03:53:57;;;;;;;1011.30;902.80;;;7.50;99.90;;;;;;5054797;28;20467;-66
2024/02/10 03:56:27;;;;;;;1019.10;910.20;;;7.50;99.90;;;;;;5070883;28;20460;-67
2024/02/10 03:58:54;;;;;;;1016.80;907.93;;;7.50;99.90;;;;;;5052060;28;20454;-66
2024/02/10 04:01:20;;;;;;;1020.27;910.53;;;7.40;99.90;;;;;;5059489;28;20443;-65
2024/02/10 04:03:47;;;;;;;1024.27;914.57;;;7.20;99.90;;;;;;5054558;28;20458;-66
2024/02/10 04:06:16;;;;;;;1027.27;917.80;;;7.00;99.90;;;;;;5054683;28;20453;-66
2024/02/10 04:08:45;;;;;;;1041.83;931.63;;;6.90;99.90;;;;;;5054517;28;20443;-66
2024/02/10 04:11:13;;;;;;;1037.00;927.13;;;6.80;99.90;;;;;;5059765;28;20466;-66
2024/02/10 04:13:41;;;;;;;1047.77;936.97;;;6.70;99.90;;;;;;5062199;28;20467;-66
2024/02/10 04:16:10;;;;;;;1039.60;929.80;;;6.60;99.90;;;;;;5054134;28;20443;-66
2024/02/10 04:18:38;;;;;;;1036.23;926.43;;;6.80;99.90;;;;;;5054219;28;20497;-65
2024/02/10 04:21:05;;;;;;;1037.00;927.13;;;6.80;99.90;;;;;;5054323;28;20451;-66
2024/02/10 04:23:33;;;;;;;1033.77;925.50;;;6.80;99.90;;;;;;5053746;28;20475;-65
2024/02/10 04:26:00;;;;;;;1026.60;917.30;;;7.00;99.90;;;;;;5054219;28;20485;-66
2024/02/10 04:28:27;;;;;;;1022.50;915.37;;;7.20;99.90;;;;;;5056413;28;20457;-66
2024/02/10 04:30:54;;;;;;;1025.27;918.30;;;7.30;99.90;;;;;;5054275;28;20447;-66
2024/02/10 04:33:21;;;;;;;1028.73;921.53;;;7.30;99.90;;;;;;5053863;28;20584;-66
2024/02/10 04:35:48;;;;;;;1017.77;911.87;;;7.40;99.90;;;;;;5053859;28;20443;-66
2024/02/10 04:38:15;;;;;;;1048.80;940.97;;;7.30;99.90;;;;;;5057786;28;20466;-66
2024/02/10 04:40:43;;;;;;;1037.87;930.07;;;7.30;99.90;;;;;;5054900;28;20852;-66
2024/02/10 04:43:11;;;;;;;1067.40;958.50;;;7.30;99.90;;;;;;5053480;28;20475;-65
2024/02/10 04:45:38;;;;;;;1050.87;942.77;;;7.30;99.90;;;;;;5055682;28;20446;-66
2024/02/10 04:48:07;;;;;;;1042.73;935.63;;;7.30;99.90;;;;;;5062168;28;20504;-65
2024/02/10 04:50:35;;;;;;;1057.53;950.80;;;7.30;99.90;;;;;;5058926;28;20443;-65
2024/02/10 04:53:06;;;;;;;1046.63;940.90;;;7.30;99.90;;;;;;5061451;28;20483;-66
2024/02/10 04:55:34;;;;;;;1024.83;919.03;;;7.40;99.90;;;;;;5053380;28;20459;-66
2024/02/10 04:58:04;;;;;;;1034.70;929.13;;;7.50;99.90;;;;;;5053689;28;20455;-67
2024/02/10 05:00:32;;;;;;;1033.93;926.80;;;7.50;99.90;;;;;;5053153;28;20520;-65
2024/02/10 05:03:02;;;;;;;1008.00;901.90;;;7.50;99.90;;;;;;5053197;28;20551;-65
2024/02/10 05:05:29;;;;;;;1019.60;914.43;;;7.50;99.90;;;;;;5061418;28;20447;-66
2024/02/10 05:07:57;;;;;;;1021.47;914.87;;;7.50;99.90;;;;;;5053262;28;20453;-66
2024/02/10 05:10:24;;;;;;;993.13;886.80;;;7.60;99.90;;;;;;5053198;28;20473;-66
2024/02/10 05:12:55;;;;;;;1016.80;908.90;;;7.80;99.90;;;;;;5052863;28;20483;-66
2024/02/10 05:15:25;;;;;;;1023.83;916.07;;;7.70;99.90;;;;;;5053371;28;20873;-65
2024/02/10 05:17:53;;;;;;;1011.20;903.13;;;7.70;99.90;;;;;;5053434;28;20447;-66
2024/02/10 05:20:21;;;;;;;991.37;875.53;;;7.80;99.90;;;;;;5053105;28;20830;-66
2024/02/10 05:22:50;;;;;;;1017.57;909.47;;;7.80;99.90;;;;;;5052425;28;20855;-66
2024/02/10 05:25:18;;;;;;;985.73;877.83;;;7.80;99.90;;;;;;5053256;28;20451;-66
2024/02/10 05:27:45;;;;;;;1020.57;910.87;;;7.70;99.90;;;;;;5055519;28;20497;-66
2024/02/10 05:30:18;;;;;;;981.37;873.17;;;7.70;99.90;;;;;;5052931;28;20444;-67
2024/02/10 05:32:47;;;;;;;992.50;885.07;;;7.70;99.90;;;;;;5052413;28;20938;-66
2024/02/10 05:35:18;;;;;;;1020.73;910.73;;;7.70;99.90;;;;;;5052602;28;20460;-65
2024/02/10 05:37:47;;;;;;;1031.20;921.13;;;7.70;99.90;;;;;;5052892;28;20458;-66
2024/02/10 05:40:15;;;;;;;1043.47;934.83;;;7.60;99.90;;;;;;5053001;28;20829;-66
2024/02/10 05:42:44;;;;;;;1052.03;942.53;;;7.50;99.90;;;;;;5054854;28;21003;-65
2024/02/10 05:45:12;;;;;;;1021.37;912.17;;;7.50;99.90;;;;;;5052554;28;20878;-67
2024/02/10 05:47:39;;;;;;;1037.37;928.67;;;7.50;99.90;;;;;;5052170;28;20823;-66
2024/02/10 05:50:12;;;;;;;1015.90;908.60;;;7.50;99.90;;;;;;5052751;28;20447;-66
2024/02/10 05:52:42;;;;;;;1024.17;916.90;;;7.50;99.90;;;;;;5052023;28;20494;-66
2024/02/10 05:55:09;;;;;;;1011.70;904.70;;;7.50;99.90;;;;;;5052404;28;20539;-66
2024/02/10 05:57:36;;;;;;;1020.00;913.30;;;7.60;99.90;;;;;;5052313;28;20458;-66
2024/02/10 06:00:09;;;;;;;1031.03;922.37;;;7.50;99.90;;;;;;5065691;28;20477;-66
2024/02/10 06:02:41;;;;;;;1027.23;919.63;;;7.50;99.90;;;;;;5053807;28;20887;-65
2024/02/10 06:05:12;;;;;;;1026.20;918.27;;;7.50;99.90;;;;;;5052544;28;20479;-66
2024/02/10 06:07:41;;;;;;;1021.67;914.97;;;7.50;99.90;;;;;;5053845;28;20487;-66
2024/02/10 06:10:11;;;;;;;1018.67;912.10;;;7.60;99.90;;;;;;5052014;28;20943;-65
2024/02/10 06:12:39;;;;;;;1029.47;922.10;;;7.60;99.90;;;;;;5059372;28;20474;-65
2024/02/10 06:15:09;;;;;;;1007.27;901.00;;;7.60;99.90;;;;;;5052204;28;20451;-65
2024/02/10 06:17:38;;;;;;;1020.70;912.90;;;7.50;99.90;;;;;;5057302;28;20930;-66
2024/02/10 06:20:06;;;;;;;1014.87;908.67;;;7.50;99.90;;;;;;5062552;28;20457;-66
2024/02/10 06:22:35;;;;;;;1026.30;919.57;;;7.50;99.90;;;;;;5055932;28;20470;-65
2024/02/10 06:25:02;;;;;;;1025.13;919.93;;;7.40;99.90;;;;;;5057132;28;20447;-66
2024/02/10 06:27:29;;;;;;;1015.97;909.13;;;7.30;99.90;;;;;;5051427;28;20459;-66
2024/02/10 06:29:58;;;;;;;1019.60;913.17;;;7.30;99.90;;;;;;5051991;28;20543;-66
2024/02/10 06:32:24;;;;;;;1025.57;919.80;;;7.30;99.90;;;;;;5051418;28;20491;-66
2024/02/10 06:34:51;;;;;;;1015.37;909.60;;;7.30;99.90;;;;;;5056936;28;20461;-66
2024/02/10 06:37:19;;;;;;;990.90;883.70;;;7.30;99.90;;;;;;5051638;28;20969;-66
2024/02/10 06:39:48;;;;;;;995.30;886.57;;;7.20;99.90;;;;;;5051829;28;20455;-65
2024/02/10 06:42:15;;;;;;;1002.03;893.03;;;7.20;99.90;;;;;;5051393;28;20492;-66
2024/02/10 06:44:42;;;;;;;993.43;886.97;;;7.30;99.90;;;;;;5051576;28;20451;-65
2024/02/10 06:47:09;;;;;;;1003.00;896.50;;;7.40;99.90;;;;;;5057331;28;20454;-66
2024/02/10 06:49:37;;;;;;;987.17;879.67;;;7.50;99.90;;;;;;5053578;28;20973;-66
2024/02/10 06:52:05;;;;;;;989.40;883.00;;;7.50;99.90;;;;;;5050925;28;20520;-65
2024/02/10 06:54:31;;;;;;;987.27;882.33;;;7.50;99.90;;;;;;5051103;28;20451;-66
2024/02/10 06:57:01;;;;;;;998.20;891.87;;;7.50;99.90;;;;;;5055926;28;20456;-66
2024/02/10 06:59:28;;;;;;;1000.67;895.13;;;7.50;99.90;;;;;;5054660;28;20495;-66
2024/02/10 07:01:55;;;;;;;1017.63;913.00;;;7.50;99.90;;;;;;5051409;28;20535;-66
2024/02/10 07:04:23;;;;;;;1003.63;899.20;;;7.60;99.90;;;;;;5051757;28;20938;-66
2024/02/10 07:06:53;;;;;;;999.07;895.33;;;7.80;99.90;;;;;;5051167;28;20455;-68
2024/02/10 07:09:21;;;;;;;996.00;891.53;;;7.70;99.90;;;;;;5051304;28;20466;-66
2024/02/10 07:11:49;;;;;;;1005.40;902.13;;;7.70;99.90;;;;;;5050354;28;20451;-66
2024/02/10 07:14:18;;;;;;;1009.23;906.07;;;7.60;99.90;;;;;;5053774;28;20545;-66
2024/02/10 07:16:45;;;;;;;1001.57;898.47;;;7.50;99.90;;;;;;5061767;28;20457;-66
2024/02/10 07:19:12;;;;;;;984.73;881.80;;;7.60;99.90;;;;;;5050939;28;20458;-65
2024/02/10 07:21:39;;;;;;;984.40;880.90;;;7.70;99.90;;;;;;5053322;28;20457;-66
2024/02/10 07:24:09;;;;;;;991.47;888.10;;;7.70;99.90;;;;;;5061729;28;20468;-66
2024/02/10 07:26:37;;;;;;;992.10;889.30;;;7.80;99.90;;;;;;5053149;28;21135;-66
2024/02/10 07:29:05;;;;;;;994.53;891.50;;;7.90;99.90;;;;;;5053676;28;20952;-66
2024/02/10 07:31:33;;;;;;;1006.73;904.87;;;7.90;99.90;;;;;;5050652;28;20455;-66
2024/02/10 07:34:01;;;;;;;997.37;894.77;;;8.00;99.90;;;;;;5053162;28;20478;-66
2024/02/10 07:36:34;;;;;;;998.47;897.23;;;8.00;99.90;;;;;;5051100;28;20455;-66
2024/02/10 07:39:02;;;;;;;986.10;885.40;;;8.10;99.90;;;;;;5051235;28;20454;-67
2024/02/10 07:41:29;;;;;;;1004.37;903.40;;;8.30;99.90;;;;;;5050476;28;20508;-64
2024/02/10 07:44:02;;;;;;;1022.13;920.57;;;8.40;99.90;;;;;;5050867;28;20467;-66
2024/02/10 07:46:30;;;;;;;1030.90;929.60;;;8.50;99.90;;;;;;5053276;28;20943;-66
2024/02/10 07:49:01;;;;;;;1033.30;930.40;;;8.70;99.90;;;;;;5057336;28;20482;-67
2024/02/10 07:51:29;;;;;;;1049.33;946.20;;;8.80;99.90;;;;;;5061951;28;20459;-65
2024/02/10 07:53:56;;;;;;;1044.30;942.00;;;8.90;99.90;;;;;;5050466;28;20515;-66
2024/02/10 07:56:23;;;;;;;1032.37;929.40;;;9.00;99.90;;;;;;5050670;28;20542;-67
2024/02/10 07:58:52;;;;;;;1033.83;931.93;;;9.10;99.90;;;;;;5050315;28;20462;-67
2024/02/10 08:01:20;;;;;;;1053.47;949.97;;;9.20;99.90;;;;;;5050855;28;20447;-67
2024/02/10 08:03:47;;;;;;;1022.00;917.07;;;9.20;99.90;;;;;;5050397;28;20530;-67
2024/02/10 08:06:15;;;;;;;1018.53;913.13;;;9.20;99.90;;;;;;5050839;28;20452;-67
2024/02/10 08:08:42;;;;;;;1031.63;927.97;;;9.30;99.90;;;;;;5051091;28;20447;-66
2024/02/10 08:11:09;;;;;;;993.37;889.57;;;9.30;99.90;;;;;;5056195;28;20447;-67
2024/02/10 08:13:36;;;;;;;1025.97;921.93;;;9.30;99.90;;;;;;5050416;28;20477;-68
2024/02/10 08:16:03;;;;;;;1000.40;896.60;;;9.40;99.90;;;;;;5050724;28;20447;-67
2024/02/10 08:18:29;;;;;;;1033.40;927.13;;;9.40;99.90;;;;;;5050556;28;20526;-67
2024/02/10 08:20:57;;;;;;;1021.53;916.30;;;9.50;99.90;;;;;;5058102;28;20486;-68
2024/02/10 08:23:25;;;;;;;1038.47;935.70;;;9.50;99.90;;;;;;5054061;28;20467;-68
2024/02/10 08:25:54;;;;;;;1029.43;924.40;;;9.60;99.90;;;;;;5053784;28;21026;-68
2024/02/10 08:28:21;;;;;;;1024.30;920.87;;;9.70;99.90;;;;;;5056775;28;20807;-67
2024/02/10 08:30:48;;;;;;;1060.70;959.77;;;9.60;99.90;;;;;;5056396;28;20461;-69
2024/02/10 08:33:20;;;;;;;1064.90;963.10;;;9.60;99.90;;;;;;5053052;28;20983;-70
2024/02/10 08:35:47;;;;;;;1026.17;924.20;;;9.60;99.90;;;;;;5052946;28;20458;-67
2024/02/10 08:38:16;;;;;;;1033.23;930.83;;;9.60;99.90;;;;;;5057032;28;20450;-68
2024/02/10 08:40:44;;;;;;;1047.97;945.90;;;9.50;99.90;;;;;;5066773;28;20478;-68
2024/02/10 08:43:11;;;;;;;1060.33;957.73;;;9.50;99.90;;;;;;5053394;28;20465;-69
2024/02/10 08:45:40;;;;;;;1048.57;945.57;;;9.50;99.90;;;;;;5053571;28;20455;-67
2024/02/10 08:48:10;;;;;;;1077.73;976.37;;;9.50;99.90;;;;;;5058712;28;20564;-68
2024/02/10 08:50:41;;;;;;;1080.83;979.00;;;9.50;99.90;;;;;;5053357;28;20451;-67
2024/02/10 08:53:07;;;;;;;1061.60;957.83;;;9.50;99.90;;;;;;5049901;28;20510;-67
2024/02/10 08:55:34;;;;;;;1071.50;968.37;;;9.60;99.90;;;;;;5053071;28;20536;-67
2024/02/10 08:58:04;;;;;;;1088.57;983.70;;;9.50;99.90;;;;;;5052959;28;20452;-67
2024/02/10 09:00:30;;;;;;;1068.53;964.77;;;9.60;99.90;;;;;;5052637;28;20466;-68
2024/02/10 09:02:57;;;;;;;1056.07;953.47;;;9.70;99.90;;;;;;5051989;28;20463;-67
2024/02/10 09:05:26;;;;;;;1059.87;956.20;;;9.70;99.90;;;;;;5058858;28;20453;-68
2024/02/10 09:07:53;;;;;;;1060.07;957.57;;;9.80;99.90;;;;;;5061372;28;20474;-68
2024/02/10 09:10:20;;;;;;;1038.27;938.10;;;9.80;99.90;;;;;;5053446;28;21014;-67
2024/02/10 09:12:46;;;;;;;1056.70;956.10;;;9.90;99.90;;;;;;5050569;28;20479;-68
2024/02/10 09:15:15;;;;;;;1059.50;958.80;;;10.00;99.90;;;;;;5049463;28;20462;-68
2024/02/10 09:17:42;;;;;;;1041.57;942.00;;;10.10;99.90;;;;;;5054145;28;21065;-67
2024/02/10 09:20:12;;;;;;;1060.30;960.60;;;10.20;99.90;;;;;;5051034;28;20897;-69
2024/02/10 09:22:39;;;;;;;1071.27;972.40;;;10.30;99.90;;;;;;5055989;28;20623;-67
2024/02/10 09:25:07;;;;;;;1077.35;977.63;;;10.40;99.90;;;;;;5050616;28;20454;-68
2024/02/10 09:27:34;;;;;;;1043.53;952.53;;;10.50;99.90;;;;;;5045786;28;20200;-69
2024/02/10 09:30:01;;;;;;;1050.47;960.77;;;10.50;99.90;;;;;;5051699;28;20509;-69
2024/02/10 09:32:29;;;;;;;1044.70;956.60;;;10.60;99.90;;;;;;5046962;28;20476;-69
2024/02/10 09:34:57;;;;;;;1026.80;939.33;;;10.60;99.90;;;;;;5044036;28;20483;-69
2024/02/10 09:37:24;;;;;;;985.17;902.50;;;10.70;99.90;;;;;;5048335;28;20451;-69
2024/02/10 09:39:51;;;;;;;984.93;902.53;;;10.80;99.90;;;;;;5053017;28;20448;-69
2024/02/10 09:42:21;;;;;;;965.33;884.83;;;10.80;99.90;;;;;;5053668;28;20467;-74
2024/02/10 09:44:49;;;;;;;924.80;848.43;;;10.90;99.90;;;;;;5053037;28;20443;-69
2024/02/10 09:47:17;;;;;;;883.23;809.53;;;10.90;99.90;;;;;;5053063;28;20501;-69
2024/02/10 09:49:45;;;;;;;858.50;784.70;;;11.00;99.90;;;;;;5052330;28;20894;-69
2024/02/10 09:52:12;;;;;;;800.13;735.43;;;11.20;99.90;;;;;;5052175;28;20474;-69
2024/02/10 09:54:40;;;;;;;795.93;734.13;;;11.20;99.90;;;;;;5055164;28;20486;-69
2024/02/10 09:57:12;;;;;;;781.47;724.23;;;11.30;99.90;;;;;;5055607;28;20458;-69
2024/02/10 09:59:41;;;;;;;764.80;712.60;;;11.30;99.90;;;;;;5052185;28;20455;-68
2024/02/10 10:02:08;;;;;;;778.90;729.30;;;11.50;99.90;;;;;;5052166;28;20523;-68
2024/02/10 10:04:35;;;;;;;757.20;716.27;;;11.50;99.90;;;;;;5052385;28;20510;-69
2024/02/10 10:07:08;;;;;;;750.93;714.17;;;11.60;99.90;;;;;;5052205;28;20447;-71
2024/02/10 10:09:35;;;;;;;671.03;644.93;;;11.70;99.90;;;;;;5051947;28;20451;-68
2024/02/10 10:12:02;;;;;;;507.60;491.17;;;11.90;99.90;;;;;;5056931;28;20542;-69
2024/02/10 10:14:29;;;;;;;347.90;337.13;;;12.10;99.90;;;;;;5057763;28;20482;-69
2024/02/10 10:16:57;;;;;;;290.02;280.30;;;12.30;99.90;;;;;;5052641;28;20455;-70
2024/02/10 10:19:26;;;;;;;108.97;104.53;;;12.50;99.90;;;;;;5053612;28;20707;-69
2024/02/10 10:21:53;;;;;;;58.40;56.00;;;12.60;99.90;;;;;;5044781;28;20443;-69
2024/02/10 10:24:22;;;;;;;39.00;37.00;;;13.00;99.90;;;;;;5050319;28;20451;-70
2024/02/10 10:26:50;;;;;;;24.87;23.67;;;13.00;99.90;;;;;;5055697;28;20448;-72
2024/02/10 10:29:20;;;;;;;20.63;19.30;;;13.20;99.90;;;;;;5049998;28;20973;-69
2024/02/10 10:31:49;;;;;;;20.17;18.97;;;13.50;99.90;;;;;;5047730;28;20509;-69
2024/02/10 10:34:17;;;;;;;16.17;15.03;;;13.90;99.90;;;;;;5049215;28;20863;-69
2024/02/10 10:36:46;;;;;;;11.53;10.73;;;13.90;99.90;;;;;;5046663;28;20971;-69
2024/02/10 10:39:13;;;;;;;8.03;7.00;;;14.20;99.90;;;;;;5042197;28;20538;-69
2024/02/10 10:41:44;;;;;;;6.97;5.60;;;14.40;99.90;;;;;;5053874;28;20473;-69
2024/02/10 10:44:13;;;;;;;7.07;4.60;;;14.50;99.90;;;;;;5046857;28;20464;-69
2024/02/10 10:46:40;;;;;;;7.27;5.57;;;14.70;99.90;;;;;;5051650;28;20457;-72
2024/02/10 10:49:09;;;;;;;5.73;4.33;;;15.00;99.90;;;;;;5044233;28;20924;-68
2024/02/10 10:51:41;;;;;;;6.17;4.30;;;15.20;99.90;;;;;;5047081;28;20625;-68
2024/02/10 10:54:10;;;;;;;7.07;4.63;;;15.30;99.90;;;;;;5048107;28;21053;-67
2024/02/10 10:56:39;;;;;;;7.73;4.10;;;15.60;99.90;;;;;;5050527;28;20830;-68
2024/02/10 10:59:09;;;;;;;9.10;5.47;;;15.40;99.90;;;;;;5055123;28;20958;-68
2024/02/10 11:01:39;;;;;;;6.33;4.77;;;15.50;99.90;;;;;;5048201;28;20518;-68
2024/02/10 11:04:11;;;;;;;6.43;4.60;;;15.60;99.90;;;;;;5051856;28;20470;-67
2024/02/10 11:06:43;;;;;;;7.53;5.10;;;15.40;99.90;;;;;;5051602;28;20469;-68
2024/02/10 11:09:20;;;;;;;8.10;5.07;;;15.30;99.90;;;;;;5056357;28;20969;-72
2024/02/10 11:11:47;;;;;;;7.13;4.23;;;14.90;99.90;;;;;;5045696;28;20462;-68
2024/02/10 11:14:15;;;;;;;8.40;5.07;;;14.70;99.90;;;;;;5048170;28;20566;-68
2024/02/10 11:16:43;;;;;;;7.57;5.53;;;14.80;99.90;;;;;;5051132;28;20451;-67
2024/02/10 11:19:12;;;;;;;7.90;5.07;;;14.80;99.90;;;;;;5049479;28;20501;-67
2024/02/10 11:21:41;;;;;;;7.13;4.57;;;14.70;99.90;;;;;;5044918;28;20460;-68
2024/02/10 11:24:11;;;;;;;7.73;5.17;;;14.50;99.90;;;;;;5039371;28;20507;-67
2024/02/10 11:26:39;;;;;;;8.47;5.87;;;14.50;99.90;;;;;;5044336;28;20447;-67
2024/02/10 11:29:07;;;;;;;6.30;5.30;;;14.50;99.90;;;;;;5055459;28;20478;-68
2024/02/10 11:31:39;;;;;;;6.90;6.20;;;14.30;99.90;;;;;;5050268;28;20846;-67
2024/02/10 11:34:11;;;;;;;6.90;5.90;;;14.40;99.90;;;;;;5038730;28;20553;-67
2024/02/10 11:36:39;;;;;;;6.67;4.87;;;14.50;99.90;;;;;;5039051;28;20454;-67
2024/02/10 11:39:08;;;;;;;7.13;5.97;;;14.40;99.90;;;;;;5037460;28;20456;-67
2024/02/10 11:41:35;;;;;;;7.40;5.50;;;14.40;99.90;;;;;;5042041;28;20451;-68
2024/02/10 11:44:01;;;;;;;7.47;4.60;;;14.50;99.90;;;;;;5046367;28;20562;-68
2024/02/10 11:46:29;;;;;;;7.20;5.33;;;14.60;99.90;;;;;;5050188;28;20447;-66
2024/02/10 11:48:59;;;;;;;6.33;4.30;;;14.70;99.90;;;;;;5050198;28;20451;-68
2024/02/10 11:51:28;;;;;;;6.67;5.37;;;14.80;99.90;;;;;;5041457;28;20456;-68
2024/02/10 11:53:57;;;;;;;6.37;4.40;;;15.10;99.90;;;;;;5049133;28;20475;-67
2024/02/10 11:56:25;;;;;;;5.67;3.97;;;15.40;99.90;;;;;;5054715;28;20494;-68
2024/02/10 11:58:52;;;;;;;13.80;4.83;;;15.50;99.90;;;;;;5050052;28;20977;-66
2024/02/10 12:01:19;;;;;;;119.10;101.77;;;15.60;99.90;;;;;;5055669;28;20454;-65
2024/02/10 12:03:48;;;;;;;8.00;5.13;;;15.80;99.90;;;;;;5061915;28;20845;-65
2024/02/10 12:06:20;;;;;;;6.40;4.13;;;15.80;99.90;;;;;;5054725;28;20443;-65
2024/02/10 12:08:47;;;;;;;6.43;4.07;;;15.80;99.90;;;;;;5054478;28;20462;-65
2024/02/10 12:11:15;;;;;;;10.60;3.30;;;15.90;99.90;;;;;;5054335;28;20447;-65
2024/02/10 12:13:42;;;;;;;8.30;4.40;;;15.80;99.90;;;;;;5059698;28;20589;-65
2024/02/10 12:16:12;;;;;;;8.00;3.97;;;15.70;99.90;;;;;;5054638;28;20447;-65
2024/02/10 12:18:39;;;;;;;6.50;4.83;;;15.60;99.90;;;;;;5062037;28;20939;-65
2024/02/10 12:21:07;;;;;;;6.37;3.60;;;15.40;99.90;;;;;;5056469;28;20451;-65